createdAt,value
2018-07-20T04:49:13.967Z,988.33
2018-07-20T06:27:41.690Z,987.97
2018-07-20T06:28:44.369Z,987.98
2018-07-20T06:41:15.079Z,987.95
2018-07-20T06:42:13.199Z,987.96
2018-07-20T06:43:29.092Z,987.96
2018-07-20T06:46:00.302Z,987.95
2018-07-20T06:49:54.658Z,987.95
2018-07-20T06:50:56.614Z,987.97
2018-07-20T06:53:43.524Z,987.98
2018-07-20T06:54:48.554Z,987.94
2018-07-20T06:55:45.918Z,987.94
2018-07-20T07:05:48.718Z,987.97
2018-07-20T07:11:55.711Z,987.91
2018-07-20T07:12:53.841Z,987.90
2018-07-20T07:21:16.449Z,987.90
2018-07-20T07:22:17.397Z,987.89
2018-07-20T07:23:13.280Z,987.88
2018-07-20T07:24:17.303Z,987.88
2018-07-20T07:25:15.496Z,987.84
2018-07-20T07:27:33.591Z,987.91
2018-07-20T07:30:11.586Z,987.66
2018-07-20T07:31:17.733Z,987.86
2018-07-20T07:32:22.787Z,987.85
2018-07-20T07:33:11.265Z,987.86
2018-07-20T07:34:10.896Z,987.85
2018-07-20T07:35:09.834Z,987.85
2018-07-20T07:36:10.944Z,987.83
2018-07-20T07:37:10.478Z,987.86
2018-07-20T07:38:08.669Z,987.91
2018-07-20T07:39:08.060Z,987.85
2018-07-20T07:40:08.186Z,987.84
2018-07-20T07:41:08.408Z,987.82
2018-07-20T07:42:08.719Z,987.85
2018-07-20T07:43:08.549Z,987.85
2018-07-20T07:44:08.724Z,987.85
2018-07-20T07:45:08.875Z,987.91
2018-07-20T07:46:09.050Z,987.87
2018-07-20T07:47:09.385Z,987.87
2018-07-20T07:48:09.571Z,987.88
2018-07-20T07:49:09.902Z,987.91
2018-07-20T07:50:09.959Z,987.87
2018-07-20T07:51:09.920Z,987.93
2018-07-20T07:52:10.109Z,987.95
2018-07-20T07:53:10.312Z,987.94
2018-07-20T07:54:10.644Z,987.98
2018-07-20T07:55:10.765Z,987.93
2018-07-20T07:56:11.149Z,987.94
2018-07-20T07:57:11.151Z,987.92
2018-07-20T07:58:11.287Z,987.95
2018-07-20T07:59:11.585Z,987.89
2018-07-20T08:00:11.702Z,987.93
2018-07-20T08:01:23.535Z,987.92
2018-07-20T08:02:15.112Z,987.90
2018-07-20T08:03:17.965Z,987.90
2018-07-20T08:04:15.184Z,987.89
2018-07-20T08:05:15.559Z,987.86
2018-07-20T08:06:13.585Z,987.84
2018-07-20T08:07:12.973Z,987.91
2018-07-20T08:08:13.279Z,987.86
2018-07-20T08:09:13.227Z,987.88
2018-07-20T08:10:15.248Z,987.86
2018-07-20T08:11:14.375Z,987.86
2018-07-20T08:12:14.169Z,987.86
2018-07-20T08:13:14.667Z,987.84
2018-07-20T08:14:15.688Z,987.79
2018-07-20T08:15:15.936Z,987.77
2018-07-20T08:16:14.980Z,987.81
2018-07-20T08:17:40.228Z,987.76
2018-07-20T08:19:25.864Z,987.79
2018-07-20T08:25:02.471Z,987.80
2018-07-20T08:26:55.005Z,987.75
2018-07-20T08:31:56.475Z,987.72
2018-07-20T08:36:09.088Z,987.74
2018-07-20T08:39:44.410Z,987.72
2018-07-20T08:40:48.299Z,987.68
2018-07-20T08:41:49.343Z,987.72
2018-07-20T08:42:45.787Z,987.69
2018-07-20T08:43:42.593Z,987.70
2018-07-20T08:44:44.490Z,987.70
2018-07-20T08:45:42.327Z,987.65
2018-07-20T08:46:41.852Z,987.67
2018-07-20T08:47:40.768Z,987.68
2018-07-20T08:48:40.959Z,987.65
2018-07-20T08:49:41.123Z,987.65
2018-07-20T08:50:41.505Z,987.66
2018-07-20T08:51:41.644Z,987.62
2018-07-20T08:52:42.225Z,987.60
2018-07-20T08:53:41.901Z,987.63
2018-07-20T08:54:42.435Z,987.60
2018-07-20T08:55:42.405Z,987.59
2018-07-20T08:56:42.411Z,987.56
2018-07-20T08:57:42.617Z,987.54
2018-07-20T08:58:42.994Z,987.53
2018-07-20T08:59:43.454Z,987.56
2018-07-20T09:00:43.139Z,987.54
2018-07-20T09:01:43.438Z,987.51
2018-07-20T09:02:44.577Z,987.54
2018-07-20T09:03:44.512Z,987.56
2018-07-20T09:04:44.238Z,987.55
2018-07-20T09:05:44.233Z,987.55
2018-07-20T09:06:44.303Z,987.53
2018-07-20T09:07:44.539Z,987.55
2018-07-20T09:08:44.810Z,987.54
2018-07-20T09:09:44.980Z,987.53
2018-07-20T09:10:45.482Z,987.51
2018-07-20T09:11:45.305Z,987.47
2018-07-20T09:12:46.127Z,987.52
2018-07-20T09:14:45.766Z,987.50
2018-07-20T09:15:45.950Z,987.43
2018-07-20T09:16:46.397Z,987.49
2018-07-20T09:17:46.339Z,987.52
2018-07-20T09:18:46.751Z,987.46
2018-07-20T09:19:46.821Z,987.47
2018-07-20T09:20:47.258Z,987.48
2018-07-20T09:21:47.257Z,987.44
2018-07-20T09:22:47.908Z,987.45
2018-07-20T09:23:47.501Z,987.43
2018-07-20T09:24:47.846Z,987.40
2018-07-20T09:25:48.343Z,987.39
2018-07-20T09:26:48.491Z,987.40
2018-07-20T09:27:48.544Z,987.38
2018-07-20T09:28:48.409Z,987.41
2018-07-20T09:29:48.568Z,987.40
2018-07-20T09:30:48.929Z,987.42
2018-07-20T09:31:49.761Z,987.43
2018-07-20T09:32:49.582Z,987.42
2018-07-20T09:33:49.809Z,987.42
2018-07-20T09:34:49.515Z,987.40
2018-07-20T09:35:50.398Z,987.38
2018-07-20T09:36:50.184Z,987.39
2018-07-20T09:37:50.171Z,987.35
2018-07-20T09:38:50.381Z,987.36
2018-07-20T09:39:52.451Z,987.34
2018-07-20T09:40:50.844Z,987.35
2018-07-20T09:41:51.119Z,987.30
2018-07-20T09:42:51.164Z,987.30
2018-07-20T09:43:51.081Z,987.28
2018-07-20T09:44:51.257Z,987.31
2018-07-20T09:45:51.399Z,987.30
2018-07-20T09:46:51.635Z,987.29
2018-07-20T09:47:52.674Z,987.28
2018-07-20T09:48:51.984Z,987.26
2018-07-20T09:49:52.194Z,987.25
2018-07-20T09:50:52.792Z,987.28
2018-07-20T09:51:52.563Z,987.30
2018-07-20T09:52:52.716Z,987.29
2018-07-20T09:53:52.888Z,987.32
2018-07-20T09:54:53.043Z,987.32
2018-07-20T09:55:53.174Z,987.33
2018-07-20T09:56:53.343Z,987.32
2018-07-20T09:57:53.590Z,987.39
2018-07-20T09:58:53.731Z,987.43
2018-07-20T09:59:54.035Z,987.41
2018-07-20T10:00:54.573Z,987.41
2018-07-20T10:01:54.358Z,987.48
2018-07-20T10:02:54.498Z,987.50
2018-07-20T10:03:54.975Z,987.49
2018-07-20T10:04:56.219Z,987.52
2018-07-20T10:05:55.176Z,987.45
2018-07-20T10:06:55.292Z,987.46
2018-07-20T10:07:55.470Z,987.56
2018-07-20T10:08:55.551Z,987.50
2018-07-20T10:09:55.925Z,987.54
2018-07-20T10:10:55.912Z,987.47
2018-07-20T10:11:56.216Z,987.52
2018-07-20T10:12:56.640Z,987.51
2018-07-20T10:13:56.714Z,987.49
2018-07-20T10:14:56.893Z,987.54
2018-07-20T10:15:57.068Z,987.50
2018-07-20T10:16:57.261Z,987.54
2018-07-20T10:17:57.368Z,987.47
2018-07-20T10:18:57.831Z,987.45
2018-07-20T10:19:57.950Z,987.48
2018-07-20T10:20:58.062Z,987.55
2018-07-20T10:21:58.341Z,987.50
2018-07-20T10:22:58.331Z,987.48
2018-07-20T10:23:58.415Z,987.47
2018-07-20T10:24:58.549Z,987.47
2018-07-20T10:25:58.838Z,987.47
2018-07-20T10:26:58.931Z,987.44
2018-07-20T10:27:59.202Z,987.50
2018-07-20T10:28:59.309Z,987.46
2018-07-20T10:29:59.396Z,987.47
2018-07-20T10:30:59.584Z,987.44
2018-07-20T10:31:59.813Z,987.48
2018-07-20T10:33:00.227Z,987.45
2018-07-20T10:34:00.294Z,987.47
2018-07-20T10:35:00.346Z,987.29
2018-07-20T10:36:00.573Z,987.15
2018-07-20T10:37:00.743Z,987.37
2018-07-20T10:38:01.035Z,987.44
2018-07-20T10:39:01.072Z,987.42
2018-07-20T10:40:01.397Z,987.42
2018-07-20T10:41:01.655Z,987.31
2018-07-20T10:42:01.541Z,987.27
2018-07-20T10:43:01.717Z,987.36
2018-07-20T10:44:02.054Z,987.40
2018-07-20T10:45:02.081Z,987.41
2018-07-20T10:46:02.389Z,987.39
2018-07-20T10:47:03.008Z,987.41
2018-07-20T10:48:02.856Z,987.40
2018-07-20T10:49:03.194Z,987.23
2018-07-20T10:50:03.555Z,987.07
2018-07-20T10:51:17.011Z,987.12
2018-07-20T10:52:06.652Z,987.14
2018-07-20T10:53:08.972Z,987.24
2018-07-20T10:54:08.835Z,987.60
2018-07-20T10:55:06.892Z,987.60
2018-07-20T10:56:04.607Z,987.35
2018-07-20T10:57:04.952Z,987.99
2018-07-20T10:58:04.694Z,987.80
2018-07-20T10:59:04.879Z,987.91
2018-07-20T11:00:05.128Z,988.12
2018-07-20T11:01:05.297Z,988.11
2018-07-20T11:02:05.495Z,988.23
2018-07-20T11:03:05.842Z,988.14
2018-07-20T11:04:05.936Z,988.00
2018-07-20T11:05:05.980Z,987.66
2018-07-20T11:06:06.360Z,987.57
2018-07-20T11:07:06.447Z,987.68
2018-07-20T11:08:06.529Z,987.79
2018-07-20T11:09:06.894Z,987.72
2018-07-20T11:10:07.074Z,987.72
2018-07-20T11:11:07.120Z,987.68
2018-07-20T11:12:07.441Z,987.52
2018-07-20T11:13:07.462Z,987.58
2018-07-20T11:14:07.775Z,987.61
2018-07-20T11:15:07.971Z,987.46
2018-07-20T11:16:08.149Z,987.29
2018-07-20T11:17:08.260Z,987.18
2018-07-20T11:18:08.591Z,987.19
2018-07-20T11:19:08.776Z,987.32
2018-07-20T11:20:08.861Z,987.28
2018-07-20T11:21:09.372Z,987.24
2018-07-20T11:22:09.240Z,987.10
2018-07-20T11:23:09.468Z,987.11
2018-07-20T11:24:09.641Z,987.15
2018-07-20T11:25:09.892Z,987.08
2018-07-20T11:26:10.051Z,987.25
2018-07-20T11:27:10.366Z,987.32
2018-07-20T11:28:10.503Z,987.17
2018-07-20T11:29:10.659Z,987.32
2018-07-20T11:30:10.925Z,987.29
2018-07-20T11:31:11.147Z,987.28
2018-07-20T11:32:11.453Z,987.21
2018-07-20T11:33:11.504Z,987.18
2018-07-20T11:34:11.683Z,987.16
2018-07-20T11:35:11.779Z,987.13
2018-07-20T11:36:11.887Z,987.13
2018-07-20T11:37:12.061Z,987.20
2018-07-20T11:38:12.407Z,987.16
2018-07-20T11:39:12.668Z,987.17
2018-07-20T11:40:12.813Z,987.17
2018-07-20T11:41:13.337Z,987.18
2018-07-20T11:42:13.076Z,987.13
2018-07-20T11:43:13.375Z,987.13
2018-07-20T11:44:13.597Z,987.14
2018-07-20T11:45:13.797Z,987.12
2018-07-20T11:46:13.942Z,987.16
2018-07-20T11:47:14.038Z,987.09
2018-07-20T11:48:14.282Z,987.11
2018-07-20T11:49:14.308Z,987.09
2018-07-20T11:50:14.590Z,987.15
2018-07-20T11:51:14.725Z,987.12
2018-07-20T11:52:14.920Z,987.24
2018-07-20T11:53:15.251Z,987.23
2018-07-20T11:54:15.190Z,987.20
2018-07-20T11:55:15.334Z,987.24
2018-07-20T11:56:15.609Z,987.25
2018-07-20T11:57:15.730Z,987.17
2018-07-20T11:58:15.916Z,987.14
2018-07-20T11:59:16.160Z,987.20
2018-07-20T12:00:16.312Z,987.20
2018-07-20T12:01:16.538Z,987.13
2018-07-20T12:02:16.682Z,987.13
2018-07-20T12:03:16.892Z,987.14
2018-07-20T12:04:17.063Z,987.09
2018-07-20T12:05:17.252Z,987.08
2018-07-20T12:06:17.454Z,986.99
2018-07-20T12:07:17.541Z,986.95
2018-07-20T12:08:17.772Z,986.95
2018-07-20T12:09:17.941Z,986.96
2018-07-20T12:10:18.057Z,986.86
2018-07-20T12:11:18.243Z,986.86
2018-07-20T12:12:18.456Z,986.83
2018-07-20T12:13:18.607Z,986.78
2018-07-20T12:14:18.896Z,986.79
2018-07-20T12:15:18.944Z,986.79
2018-07-20T12:16:19.224Z,986.83
2018-07-20T12:17:19.341Z,986.87
2018-07-20T12:18:19.638Z,986.86
2018-07-20T12:19:19.863Z,986.90
2018-07-20T12:20:20.011Z,986.89
2018-07-20T12:21:20.237Z,986.88
2018-07-20T12:22:20.490Z,986.78
2018-07-20T12:23:20.643Z,986.66
2018-07-20T12:24:20.903Z,986.50
2018-07-20T12:25:21.264Z,986.45
2018-07-20T12:26:21.301Z,986.41
2018-07-20T12:27:21.355Z,986.38
2018-07-20T12:28:21.712Z,986.42
2018-07-20T12:29:21.913Z,986.43
2018-07-20T12:30:21.974Z,986.44
2018-07-20T12:31:22.299Z,986.43
2018-07-20T12:32:22.423Z,986.45
2018-07-20T12:33:22.598Z,986.45
2018-07-20T12:34:22.662Z,986.42
2018-07-20T12:35:22.919Z,986.41
2018-07-20T12:36:23.089Z,986.48
2018-07-20T12:37:23.230Z,986.45
2018-07-20T12:38:23.466Z,986.40
2018-07-20T12:39:23.672Z,986.41
2018-07-20T12:40:23.970Z,986.44
2018-07-20T12:41:24.036Z,986.42
2018-07-20T12:42:24.311Z,986.41
2018-07-20T12:43:24.517Z,986.41
2018-07-20T12:44:24.711Z,986.42
2018-07-20T12:45:24.770Z,986.37
2018-07-20T12:46:25.029Z,986.42
2018-07-20T12:47:25.295Z,986.42
2018-07-20T12:48:25.422Z,986.42
2018-07-20T12:49:25.555Z,986.49
2018-07-20T12:50:25.859Z,986.43
2018-07-20T12:51:25.995Z,986.40
2018-07-20T12:52:26.145Z,986.40
2018-07-20T12:53:26.385Z,986.41
2018-07-20T12:54:26.601Z,986.39
2018-07-20T12:55:26.748Z,986.33
2018-07-20T12:56:26.975Z,986.34
2018-07-20T12:57:27.177Z,986.34
2018-07-20T12:58:27.469Z,986.32
2018-07-20T12:59:27.674Z,986.30
2018-07-20T13:00:27.708Z,986.26
2018-07-20T13:01:27.908Z,986.28
2018-07-20T13:02:28.067Z,986.30
2018-07-20T13:03:28.266Z,986.31
2018-07-20T13:04:28.405Z,986.35
2018-07-20T13:05:28.570Z,986.34
2018-07-20T13:06:29.336Z,986.35
2018-07-20T13:07:29.229Z,986.27
2018-07-20T13:08:29.224Z,986.29
2018-07-20T13:09:29.417Z,986.29
2018-07-20T13:10:29.629Z,986.22
2018-07-20T13:11:29.751Z,986.15
2018-07-20T13:12:29.967Z,986.20
2018-07-20T13:13:30.290Z,986.18
2018-07-20T13:14:30.280Z,986.15
2018-07-20T13:15:30.466Z,986.13
2018-07-20T13:16:30.598Z,986.19
2018-07-20T13:17:30.844Z,986.14
2018-07-20T13:18:30.979Z,986.20
2018-07-20T13:19:31.172Z,986.16
2018-07-20T13:20:31.285Z,986.09
2018-07-20T13:21:31.738Z,986.06
2018-07-20T13:22:31.772Z,986.04
2018-07-20T13:23:32.132Z,986.09
2018-07-20T13:24:32.153Z,986.05
2018-07-20T13:25:32.293Z,986.04
2018-07-20T13:26:32.453Z,986.02
2018-07-20T13:27:32.584Z,986.02
2018-07-20T13:28:32.763Z,986.01
2018-07-20T13:29:32.952Z,985.98
2018-07-20T13:30:33.321Z,985.94
2018-07-20T13:31:33.324Z,985.92
2018-07-20T13:32:33.391Z,985.87
2018-07-20T13:33:33.600Z,985.88
2018-07-20T13:34:33.885Z,985.88
2018-07-20T13:35:34.067Z,985.89
2018-07-20T13:36:34.301Z,985.83
2018-07-20T13:37:34.343Z,985.91
2018-07-20T13:38:34.629Z,985.89
2018-07-20T13:39:34.707Z,985.84
2018-07-20T13:40:34.959Z,985.87
2018-07-20T13:41:35.134Z,985.83
2018-07-20T13:42:35.347Z,985.84
2018-07-20T13:43:35.441Z,985.83
2018-07-20T13:44:35.639Z,985.82
2018-07-20T13:45:35.819Z,985.80
2018-07-20T13:46:35.967Z,985.78
2018-07-20T13:47:36.273Z,985.79
2018-07-20T13:48:36.332Z,985.78
2018-07-20T13:49:36.599Z,985.75
2018-07-20T13:50:36.757Z,985.78
2018-07-20T13:51:36.879Z,985.81
2018-07-20T13:52:37.420Z,985.79
2018-07-20T13:53:37.373Z,985.77
2018-07-20T13:54:37.675Z,985.75
2018-07-20T13:55:37.722Z,985.74
2018-07-20T13:56:37.842Z,985.72
2018-07-20T13:57:38.204Z,985.76
2018-07-20T13:58:38.320Z,985.68
2018-07-20T13:59:38.449Z,985.72
2018-07-20T14:00:38.624Z,985.64
2018-07-20T14:01:38.798Z,985.73
2018-07-20T14:02:39.075Z,985.74
2018-07-20T14:03:39.148Z,985.70
2018-07-20T14:04:39.435Z,985.66
2018-07-20T14:05:39.499Z,985.68
2018-07-20T14:06:39.655Z,985.68
2018-07-20T14:07:39.911Z,985.72
2018-07-20T14:08:40.070Z,985.70
2018-07-20T14:09:40.280Z,985.63
2018-07-20T14:10:40.480Z,985.65
2018-07-20T14:11:40.540Z,985.63
2018-07-20T14:12:40.810Z,985.62
2018-07-20T14:13:40.966Z,985.62
2018-07-20T14:14:41.183Z,985.56
2018-07-20T14:15:41.283Z,985.58
2018-07-20T14:16:41.546Z,985.57
2018-07-20T14:17:41.777Z,985.50
2018-07-20T14:18:41.971Z,985.48
2018-07-20T14:19:42.228Z,985.51
2018-07-20T14:20:42.285Z,985.47
2018-07-20T14:21:42.520Z,985.46
2018-07-20T14:22:42.678Z,985.42
2018-07-20T14:23:42.932Z,985.39
2018-07-20T14:24:42.976Z,985.40
2018-07-20T14:25:43.352Z,985.42
2018-07-20T14:26:43.569Z,985.46
2018-07-20T14:27:43.646Z,985.41
2018-07-20T14:28:43.789Z,985.37
2018-07-20T14:29:44.043Z,985.38
2018-07-20T14:30:44.235Z,985.38
2018-07-20T14:31:44.572Z,985.34
2018-07-20T14:32:44.526Z,985.31
2018-07-20T14:33:44.744Z,985.32
2018-07-20T14:34:44.989Z,985.33
2018-07-20T14:35:45.241Z,985.36
2018-07-20T14:36:45.401Z,985.35
2018-07-20T14:37:45.591Z,985.37
2018-07-20T14:38:45.802Z,985.36
2018-07-20T14:39:45.952Z,985.38
2018-07-20T14:40:46.086Z,985.32
2018-07-20T14:41:46.279Z,985.34
2018-07-20T14:42:46.507Z,985.30
2018-07-20T14:43:46.713Z,985.28
2018-07-20T14:44:46.854Z,985.30
2018-07-20T14:45:47.096Z,985.28
2018-07-20T14:46:47.165Z,985.23
2018-07-20T14:47:47.580Z,985.26
2018-07-20T14:48:47.644Z,985.26
2018-07-20T14:49:47.837Z,985.25
2018-07-20T14:50:47.968Z,985.27
2018-07-20T14:51:48.127Z,985.28
2018-07-20T14:52:48.306Z,985.24
2018-07-20T14:53:48.424Z,985.24
2018-07-20T14:54:48.810Z,985.24
2018-07-20T14:55:49.029Z,985.23
2018-07-20T14:56:49.075Z,985.26
2018-07-20T14:57:49.172Z,985.24
2018-07-20T14:58:49.485Z,985.19
2018-07-20T14:59:49.610Z,985.17
2018-07-20T15:00:49.850Z,985.16
2018-07-20T15:01:50.021Z,985.13
2018-07-20T15:02:50.134Z,985.14
2018-07-20T15:03:50.329Z,985.07
2018-07-20T15:04:50.470Z,985.08
2018-07-20T15:05:50.633Z,985.13
2018-07-20T15:06:51.009Z,985.16
2018-07-20T15:07:51.060Z,985.15
2018-07-20T15:08:51.329Z,985.17
2018-07-20T15:09:51.367Z,985.14
2018-07-20T15:10:51.618Z,985.13
2018-07-20T15:11:51.831Z,985.14
2018-07-20T15:12:51.967Z,985.13
2018-07-20T15:13:52.246Z,985.15
2018-07-20T15:14:52.373Z,985.07
2018-07-20T15:15:52.535Z,985.09
2018-07-20T15:16:52.811Z,985.08
2018-07-20T15:17:52.925Z,985.06
2018-07-20T15:18:53.120Z,985.07
2018-07-20T15:19:53.276Z,985.03
2018-07-20T15:20:53.527Z,984.96
2018-07-20T15:21:53.596Z,984.97
2018-07-20T15:22:53.830Z,984.94
2018-07-20T15:23:54.048Z,984.93
2018-07-20T15:24:54.321Z,984.91
2018-07-20T15:25:54.390Z,984.93
2018-07-20T15:26:54.680Z,984.95
2018-07-20T15:27:54.862Z,984.93
2018-07-20T15:28:54.906Z,984.95
2018-07-20T15:29:55.139Z,984.89
2018-07-20T15:30:55.484Z,984.83
2018-07-20T15:31:55.629Z,984.84
2018-07-20T15:32:55.831Z,984.83
2018-07-20T15:33:55.964Z,984.85
2018-07-20T15:34:56.189Z,984.87
2018-07-20T15:35:56.400Z,984.85
2018-07-20T15:36:56.557Z,984.85
2018-07-20T15:37:56.639Z,984.89
2018-07-20T15:38:56.804Z,984.81
2018-07-20T15:39:57.149Z,984.81
2018-07-20T15:40:57.320Z,984.72
2018-07-20T15:41:57.496Z,984.70
2018-07-20T15:42:57.587Z,984.75
2018-07-20T15:43:57.849Z,984.73
2018-07-20T15:44:58.099Z,984.72
2018-07-20T15:46:05.966Z,984.72
2018-07-20T15:46:58.593Z,984.75
2018-07-20T15:47:58.601Z,984.79
2018-07-20T15:48:58.855Z,984.71
2018-07-20T15:49:59.024Z,984.72
2018-07-20T15:50:59.133Z,984.71
2018-07-20T15:53:59.801Z,984.64
2018-07-20T15:55:00.023Z,984.62
2018-07-20T15:56:00.253Z,984.68
2018-07-20T15:57:00.331Z,984.73
2018-07-20T15:58:00.489Z,984.73
2018-07-20T15:59:00.637Z,984.75
2018-07-20T16:00:00.904Z,984.75
2018-07-20T16:01:01.022Z,984.72
2018-07-20T16:02:01.232Z,984.71
2018-07-20T16:03:01.399Z,984.69
2018-07-20T16:04:01.705Z,984.70
2018-07-20T16:05:01.829Z,984.71
2018-07-20T16:06:02.072Z,984.72
2018-07-20T16:07:02.111Z,984.70
2018-07-20T16:08:02.325Z,984.70
2018-07-20T16:09:02.456Z,984.65
2018-07-20T16:10:02.706Z,984.64
2018-07-20T16:11:02.835Z,984.63
2018-07-20T16:12:03.023Z,984.54
2018-07-20T16:13:03.165Z,984.67
2018-07-20T16:14:03.393Z,984.66
2018-07-20T16:15:03.529Z,984.62
2018-07-20T16:16:03.819Z,984.61
2018-07-20T16:17:03.965Z,984.65
2018-07-20T16:18:04.135Z,984.60
2018-07-20T16:19:04.279Z,984.61
2018-07-20T16:20:04.485Z,984.56
2018-07-20T16:21:04.603Z,984.54
2018-07-20T16:22:04.934Z,984.46
2018-07-20T16:23:04.975Z,984.49
2018-07-20T16:24:05.237Z,984.47
2018-07-20T16:25:05.408Z,984.42
2018-07-20T16:26:05.639Z,984.39
2018-07-20T16:27:05.797Z,984.41
2018-07-20T16:28:05.901Z,984.39
2018-07-20T16:29:06.131Z,984.37
2018-07-20T16:30:06.222Z,984.35
2018-07-20T16:31:06.434Z,984.42
2018-07-20T16:32:06.720Z,984.36
2018-07-20T16:33:06.868Z,984.34
2018-07-20T16:34:07.063Z,984.32
2018-07-20T16:35:07.221Z,984.32
2018-07-20T16:36:07.416Z,984.27
2018-07-20T16:37:07.517Z,984.23
2018-07-20T16:38:07.778Z,984.26
2018-07-20T16:39:07.971Z,984.23
2018-07-20T16:40:08.126Z,984.19
2018-07-20T16:42:08.427Z,984.19
2018-07-20T16:43:08.579Z,984.15
2018-07-20T16:44:08.840Z,984.11
2018-07-20T16:45:09.195Z,984.08
2018-07-20T16:46:09.151Z,984.10
2018-07-20T16:47:09.424Z,984.06
2018-07-20T16:48:09.581Z,984.06
2018-07-20T16:49:09.771Z,984.06
2018-07-20T16:50:09.909Z,984.03
2018-07-20T16:51:10.135Z,984.01
2018-07-20T16:52:10.203Z,984.01
2018-07-20T16:53:10.464Z,983.99
2018-07-20T16:54:10.646Z,983.97
2018-07-20T16:55:10.780Z,983.95
2018-07-20T16:56:10.955Z,983.94
2018-07-20T16:57:11.091Z,983.91
2018-07-20T16:58:11.287Z,983.91
2018-07-20T16:59:11.485Z,983.93
2018-07-20T17:00:11.611Z,983.95
2018-07-20T17:01:11.868Z,983.96
2018-07-20T17:02:12.018Z,983.92
2018-07-20T17:03:12.188Z,983.91
2018-07-20T17:04:12.416Z,983.92
2018-07-20T17:05:12.537Z,983.90
2018-07-20T17:06:12.710Z,983.85
2018-07-20T17:07:12.942Z,983.82
2018-07-20T17:08:13.036Z,983.80
2018-07-20T17:09:13.258Z,983.84
2018-07-20T17:10:13.445Z,983.80
2018-07-20T17:11:13.608Z,983.79
2018-07-20T17:12:13.815Z,983.80
2018-07-20T17:13:13.957Z,983.78
2018-07-20T17:14:14.138Z,983.78
2018-07-20T17:15:14.279Z,983.80
2018-07-20T17:16:14.483Z,983.79
2018-07-20T17:17:14.737Z,983.77
2018-07-20T17:18:14.930Z,983.78
2018-07-20T17:19:15.107Z,983.78
2018-07-20T17:20:15.219Z,983.75
2018-07-20T17:21:15.392Z,983.77
2018-07-20T17:22:15.600Z,983.78
2018-07-20T17:23:15.749Z,983.77
2018-07-20T17:24:15.936Z,983.76
2018-07-20T17:25:16.042Z,983.77
2018-07-20T17:26:16.282Z,983.81
2018-07-20T17:27:16.402Z,983.81
2018-07-20T17:28:16.736Z,983.81
2018-07-20T17:29:16.819Z,983.79
2018-07-20T17:30:16.934Z,983.83
2018-07-20T17:31:17.129Z,983.80
2018-07-20T17:32:17.272Z,983.76
2018-07-20T17:33:17.455Z,983.82
2018-07-20T17:34:17.674Z,983.85
2018-07-20T17:35:17.890Z,983.81
2018-07-20T17:36:18.124Z,983.81
2018-07-20T17:37:18.257Z,983.81
2018-07-20T17:38:18.367Z,983.77
2018-07-20T17:39:18.502Z,983.77
2018-07-20T17:40:18.765Z,983.77
2018-07-20T17:41:18.850Z,983.73
2018-07-20T17:42:19.144Z,983.76
2018-07-20T17:43:19.568Z,983.78
2018-07-20T17:44:19.469Z,983.76
2018-07-20T17:45:19.644Z,983.72
2018-07-20T17:46:19.856Z,983.74
2018-07-20T17:47:19.950Z,983.72
2018-07-20T17:48:20.102Z,983.74
2018-07-20T17:49:20.356Z,983.71
2018-07-20T17:50:20.574Z,983.67
2018-07-20T17:51:20.747Z,983.72
2018-07-20T17:52:20.903Z,983.68
2018-07-20T17:53:21.103Z,983.68
2018-07-20T17:54:21.247Z,983.59
2018-07-20T17:55:21.432Z,983.63
2018-07-20T17:56:21.567Z,983.62
2018-07-20T17:57:21.693Z,983.58
2018-07-20T17:58:21.970Z,983.60
2018-07-20T17:59:22.085Z,983.63
2018-07-20T18:00:22.255Z,983.60
2018-07-20T18:01:22.364Z,983.59
2018-07-20T18:02:22.775Z,983.58
2018-07-20T18:03:22.981Z,983.60
2018-07-20T18:04:23.099Z,983.59
2018-07-20T18:05:23.164Z,983.63
2018-07-20T18:06:23.389Z,983.62
2018-07-20T18:07:23.553Z,983.62
2018-07-20T18:08:23.708Z,983.63
2018-07-20T18:09:23.847Z,983.64
2018-07-20T18:10:24.115Z,983.66
2018-07-20T18:11:24.174Z,983.63
2018-07-20T18:12:24.362Z,983.68
2018-07-20T18:13:24.698Z,983.66
2018-07-20T18:14:24.904Z,983.71
2018-07-20T18:15:24.968Z,983.70
2018-07-20T18:16:25.150Z,983.69
2018-07-20T18:17:25.524Z,983.70
2018-07-20T18:18:28.343Z,983.69
2018-07-20T18:25:26.145Z,983.73
2018-07-20T18:27:31.555Z,983.69
2018-07-20T18:28:28.316Z,983.74
2018-07-20T18:30:37.144Z,983.74
2018-07-20T18:34:23.102Z,983.74
2018-07-20T18:35:27.987Z,983.78
2018-07-20T18:36:21.480Z,983.80
2018-07-20T18:38:21.042Z,983.78
2018-07-20T18:39:20.157Z,983.76
2018-07-20T18:40:20.227Z,983.76
2018-07-20T18:41:20.403Z,983.74
2018-07-20T18:42:20.569Z,983.78
2018-07-20T18:43:20.745Z,983.74
2018-07-20T18:44:20.884Z,983.75
2018-07-20T18:45:21.013Z,983.74
2018-07-20T18:46:21.179Z,983.73
2018-07-20T18:47:21.383Z,983.78
2018-07-20T18:48:21.575Z,983.72
2018-07-20T18:49:22.025Z,983.71
2018-07-20T18:50:21.902Z,983.69
2018-07-20T18:51:23.764Z,983.73
2018-07-20T18:52:22.331Z,983.74
2018-07-20T18:53:22.418Z,983.71
2018-07-20T18:54:22.540Z,983.75
2018-07-20T18:55:22.688Z,983.78
2018-07-20T18:56:23.337Z,983.78
2018-07-20T19:00:22.985Z,983.74
2018-07-20T19:01:23.950Z,983.74
2018-07-20T19:02:26.863Z,983.68
2018-07-20T19:03:23.959Z,983.66
2018-07-20T19:04:27.172Z,983.61
2018-07-20T19:05:27.596Z,983.60
2018-07-20T19:06:25.678Z,983.60
2018-07-20T19:07:25.484Z,983.60
2018-07-20T19:08:28.573Z,983.58
2018-07-20T19:09:36.576Z,983.61
2018-07-20T19:11:28.368Z,983.59
2018-07-20T19:12:25.132Z,983.62
2018-07-20T19:13:25.745Z,983.62
2018-07-20T19:14:29.836Z,983.64
2018-07-20T19:15:29.628Z,983.64
2018-07-20T19:16:34.095Z,983.69
2018-07-20T19:17:24.837Z,983.72
2018-07-20T19:18:23.989Z,983.75
2018-07-20T19:19:23.953Z,983.72
2018-07-20T19:20:24.160Z,983.73
2018-07-20T19:21:24.415Z,983.79
2018-07-20T19:22:24.630Z,983.73
2018-07-20T19:23:24.779Z,983.77
2018-07-20T19:24:24.931Z,983.72
2018-07-20T19:25:27.086Z,983.83
2018-07-20T19:26:25.396Z,983.85
2018-07-20T19:27:25.667Z,983.84
2018-07-20T19:28:25.820Z,983.89
2018-07-20T19:29:25.895Z,983.88
2018-07-20T19:30:26.168Z,983.93
2018-07-20T19:31:26.366Z,983.91
2018-07-20T19:32:26.366Z,983.96
2018-07-20T19:33:26.597Z,983.96
2018-07-20T19:34:26.870Z,983.97
2018-07-20T19:35:27.078Z,983.98
2018-07-20T19:36:27.374Z,984.00
2018-07-20T19:37:27.430Z,984.02
2018-07-20T19:38:27.670Z,984.01
2018-07-20T19:39:27.985Z,983.99
2018-07-20T19:40:28.025Z,983.99
2018-07-20T19:41:28.267Z,984.01
2018-07-20T19:42:28.489Z,984.00
2018-07-20T19:43:28.735Z,984.03
2018-07-20T19:44:28.741Z,984.03
2018-07-20T19:45:28.861Z,984.06
2018-07-20T19:46:30.403Z,984.05
2018-07-20T19:47:29.494Z,984.09
2018-07-20T19:48:29.989Z,984.09
2018-07-20T19:49:29.562Z,984.10
2018-07-20T19:50:29.812Z,984.07
2018-07-20T19:51:30.798Z,984.04
2018-07-20T19:52:31.100Z,984.04
2018-07-20T19:53:30.675Z,984.06
2018-07-20T19:54:31.518Z,984.05
2018-07-20T19:55:30.738Z,984.01
2018-07-20T19:56:31.299Z,983.97
2018-07-20T19:57:31.474Z,983.98
2018-07-20T19:58:31.400Z,984.01
2018-07-20T19:59:31.359Z,984.00
2018-07-20T20:00:31.433Z,983.97
2018-07-20T20:01:31.551Z,983.97
2018-07-20T20:02:31.950Z,983.97
2018-07-20T20:03:32.336Z,983.96
2018-07-20T20:04:32.996Z,983.95
2018-07-20T20:05:32.492Z,983.96
2018-07-20T20:06:32.997Z,983.94
2018-07-20T20:07:32.907Z,983.95
2018-07-20T20:08:33.068Z,983.92
2018-07-20T20:09:33.251Z,983.91
2018-07-20T20:10:33.485Z,983.89
2018-07-20T20:11:33.477Z,983.87
2018-07-20T20:12:33.610Z,983.86
2018-07-20T20:13:33.917Z,983.89
2018-07-20T20:14:34.153Z,983.83
2018-07-20T20:15:34.514Z,983.88